Time;durP1;ratioP1;P1;durP2;ratioP2;P2;SDS_P1;SDS_P2;PMS_P1;PMS_P2;Temp;Humidity;BMP_temperature;BMP_pressure;BME280_temperature;BME280_humidity;BME280_pressure;Samples;Min_cycle;Max_cycle;Signal;HPM_P1;HPM_P2
2021/07/12 00:04:32;;;;;;;;;;;14.80;99.90;;;13.45;100.00;95640.19;10507053;28;2308;-80
2021/07/12 00:09:34;;;;;;;;;;;14.70;99.90;;;13.41;100.00;95636.47;10490229;28;2451;-77
2021/07/12 00:14:37;;;;;;;;;;;14.70;99.90;;;13.33;100.00;95630.97;10469391;28;2294;-78
2021/07/12 00:19:40;;;;;;;;;;;14.60;99.90;;;13.26;100.00;95628.63;10481571;28;2285;-78
2021/07/12 00:24:42;;;;;;;;;;;14.50;99.90;;;13.31;100.00;95623.16;10487203;28;2203;-80
2021/07/12 00:29:45;;;;;;;;;;;14.50;99.90;;;13.18;100.00;95610.38;10493423;28;2364;-79
2021/07/12 00:34:48;;;;;;;;;;;14.40;99.90;;;13.22;100.00;95617.59;10487047;28;2384;-81
2021/07/12 00:39:51;;;;;;;;;;;14.40;99.90;;;13.31;100.00;95620.47;10484519;28;2312;-79
2021/07/12 00:44:53;;;;;;;;;;;14.50;99.90;;;13.36;100.00;95612.28;10491212;28;2383;-79
2021/07/12 00:49:56;;;;;;;;;;;14.50;99.90;;;13.38;100.00;95604.69;10488032;28;2728;-79
2021/07/12 00:54:59;;;;;;;;;;;14.50;99.90;;;13.37;100.00;95599.59;10486861;28;2278;-79
2021/07/12 01:00:02;;;;;;;;;;;14.50;99.90;;;13.32;100.00;95594.25;10466067;28;2194;-79
2021/07/12 01:05:05;;;;;;;;;;;14.50;99.90;;;13.20;100.00;95587.41;10485748;28;2277;-78
2021/07/12 01:10:08;;;;;;;;;;;14.40;99.90;;;13.16;100.00;95588.25;10481221;28;2325;-78
2021/07/12 01:15:11;;;;;;;;;;;14.30;99.90;;;13.14;100.00;95590.47;10484205;28;2317;-80
2021/07/12 01:20:15;;;;;;;;;;;14.30;99.90;;;13.12;100.00;95585.38;10486728;28;2200;-79
2021/07/12 01:25:18;;;;;;;;;;;14.30;99.90;;;13.15;100.00;95583.97;10481440;28;2245;-81
2021/07/12 01:30:21;;;;;;;;;;;14.30;99.90;;;13.15;100.00;95590.16;10483206;28;2356;-79
2021/07/12 01:35:24;;;;;;;;;;;14.30;99.90;;;13.11;100.00;95585.66;10462308;28;2463;-78
2021/07/12 01:40:26;;;;;;;;;;;14.30;99.90;;;13.03;100.00;95575.53;10488600;28;2477;-80
2021/07/12 01:45:29;;;;;;;;;;;14.20;99.90;;;13.01;100.00;95575.03;10481919;28;2534;-80
2021/07/12 01:50:32;;;;;;;;;;;14.20;99.90;;;13.00;100.00;95566.13;10484409;28;2293;-79
2021/07/12 01:55:35;;;;;;;;;;;14.20;99.90;;;12.99;100.00;95556.44;10481510;28;1994;-80
2021/07/12 02:00:37;;;;;;;;;;;14.10;99.90;;;12.96;100.00;95548.91;10488141;28;2542;-82
2021/07/12 02:05:40;;;;;;;;;;;14.10;99.90;;;12.95;100.00;95552.72;10525815;28;2538;-80
2021/07/12 02:10:43;;;;;;;;;;;14.10;99.90;;;12.88;100.00;95536.09;10516644;28;2546;-80
2021/07/12 02:15:45;;;;;;;;;;;14.00;99.90;;;12.79;100.00;95533.28;10510288;28;2535;-79
2021/07/12 02:20:48;;;;;;;;;;;14.00;99.90;;;12.70;100.00;95522.31;10485304;28;2543;-79
2021/07/12 02:25:51;;;;;;;;;;;13.90;99.90;;;12.67;100.00;95524.81;10481903;28;2420;-79
2021/07/12 02:30:54;;;;;;;;;;;13.90;99.90;;;12.60;100.00;95513.59;10488144;28;2510;-80
2021/07/12 02:35:56;;;;;;;;;;;13.80;99.90;;;12.58;100.00;95511.19;10484071;28;2974;-80
2021/07/12 02:40:59;;;;;;;;;;;13.70;99.90;;;12.61;100.00;95509.81;10476597;28;2654;-80
2021/07/12 02:46:02;;;;;;;;;;;13.80;99.90;;;12.51;100.00;95508.06;10486604;28;2589;-80
2021/07/12 02:51:05;;;;;;;;;;;13.70;99.90;;;12.49;100.00;95506.75;10480966;28;2496;-80
2021/07/12 02:56:07;;;;;;;;;;;13.70;99.90;;;12.43;100.00;95508.72;10496254;28;2447;-80
2021/07/12 03:01:10;;;;;;;;;;;13.60;99.90;;;12.44;100.00;95508.41;10493310;28;2578;-79
2021/07/12 03:06:13;;;;;;;;;;;13.60;99.90;;;12.44;100.00;95513.00;10483767;28;2468;-80
2021/07/12 03:11:16;;;;;;;;;;;13.60;99.90;;;12.37;100.00;95518.78;10527481;28;1280;-80
2021/07/12 03:16:18;;;;;;;;;;;13.60;99.90;;;12.41;100.00;95517.09;10512406;28;2125;-80
2021/07/12 03:21:21;;;;;;;;;;;13.60;99.90;;;12.41;100.00;95524.38;10486027;28;2275;-79
2021/07/12 03:26:25;;;;;;;;;;;13.60;99.90;;;12.43;100.00;95514.91;10480749;28;2546;-80
2021/07/12 03:31:27;;;;;;;;;;;13.60;99.90;;;12.45;100.00;95512.72;10490441;28;2414;-81
2021/07/12 03:36:31;;;;;;;;;;;13.60;99.90;;;12.42;100.00;95521.41;10476500;28;2424;-79
2021/07/12 03:41:34;;;;;;;;;;;13.60;99.90;;;12.45;100.00;95518.09;10492630;28;2538;-78
2021/07/12 03:46:37;;;;;;;;;;;13.60;99.90;;;12.47;100.00;95522.41;10492543;28;2439;-80
2021/07/12 03:51:41;;;;;;;;;;;13.60;99.90;;;12.60;100.00;95522.50;10500520;28;2501;-81
2021/07/12 03:56:44;;;;;;;;;;;13.60;99.90;;;12.66;100.00;95517.81;10517364;28;2633;-80
2021/07/12 04:01:46;;;;;;;;;;;13.70;99.90;;;12.80;100.00;95521.38;10520902;28;2483;-81
2021/07/12 04:06:49;;;;;;;;;;;13.80;99.90;;;12.92;100.00;95513.66;10515260;28;2487;-80
2021/07/12 04:11:55;;;;;;;;;;;13.90;99.90;;;13.15;100.00;95514.59;10487778;28;2752;-80
2021/07/12 04:16:59;;;;;;;;;;;14.00;99.90;;;13.37;100.00;95505.91;10480143;28;2499;-80
2021/07/12 04:22:02;;;;;;;;;;;14.30;99.90;;;13.58;100.00;95500.13;10486450;28;2507;-78
2021/07/12 04:27:05;;;;;;;;;;;14.40;99.90;;;13.60;100.00;95492.50;10498450;28;2455;-81
2021/07/12 04:32:08;;;;;;;;;;;14.60;99.90;;;13.81;100.00;95487.53;10509223;28;2580;-81
2021/07/12 04:37:10;;;;;;;;;;;14.70;99.90;;;13.75;100.00;95484.13;10479706;28;2124;-81
2021/07/12 04:42:13;;;;;;;;;;;14.70;99.90;;;14.10;100.00;95489.91;10499294;28;2571;-81
2021/07/12 04:47:16;;;;;;;;;;;14.90;99.90;;;14.41;100.00;95488.13;10496876;28;2512;-81
2021/07/12 04:52:19;;;;;;;;;;;15.10;99.90;;;14.65;97.79;95495.22;10509970;28;2649;-80
2021/07/12 04:57:21;;;;;;;;;;;15.30;99.90;;;14.60;96.81;95488.81;10545173;28;1093;-81
2021/07/12 05:02:24;;;;;;;;;;;15.50;99.90;;;14.48;98.14;95483.13;10494191;28;2558;-80
2021/07/12 05:07:27;;;;;;;;;;;15.50;99.90;;;14.45;97.96;95475.59;10489404;28;2545;-79
2021/07/12 05:12:29;;;;;;;;;;;15.50;99.90;;;14.66;98.08;95480.56;10474113;28;2542;-81
2021/07/12 05:17:32;;;;;;;;;;;15.50;99.90;;;15.18;94.50;95475.50;10492070;28;2655;-81
2021/07/12 05:22:35;;;;;;;;;;;15.80;99.90;;;15.37;92.65;95479.59;10487673;28;1977;-80
2021/07/12 05:27:38;;;;;;;;;;;16.20;99.90;;;15.70;90.32;95481.22;10479631;28;2562;-82
2021/07/12 05:32:41;;;;;;;;;;;16.40;99.90;;;15.54;91.55;95484.31;10501201;28;2148;-78
2021/07/12 05:37:44;;;;;;;;;;;16.60;99.90;;;15.54;91.54;95484.31;10482887;28;2478;-80
2021/07/12 05:42:47;;;;;;;;;;;16.50;99.90;;;15.61;91.40;95483.88;10483938;28;1911;-81
2021/07/12 05:47:50;;;;;;;;;;;16.70;99.90;;;16.16;88.37;95478.81;10517808;28;2460;-77
2021/07/12 05:52:53;;;;;;;;;;;16.90;99.90;;;16.62;87.62;95479.34;10495470;28;2656;-79
2021/07/12 05:57:56;;;;;;;;;;;17.20;99.90;;;17.09;83.39;95483.03;10496947;28;2469;-80
2021/07/12 06:02:58;;;;;;;;;;;17.70;99.90;;;17.34;82.78;95467.00;10497951;28;2519;-79
2021/07/12 06:08:01;;;;;;;;;;;18.00;99.90;;;17.67;80.71;95468.00;10513702;28;2449;-79
2021/07/12 06:13:04;;;;;;;;;;;18.30;99.90;;;17.86;79.32;95458.69;10509070;28;2486;-82
2021/07/12 06:18:07;;;;;;;;;;;18.60;99.90;;;17.94;78.57;95460.53;10498151;28;2396;-79
2021/07/12 06:23:10;;;;;;;;;;;18.60;99.90;;;17.81;78.51;95455.03;10499460;28;2525;-80
2021/07/12 06:28:12;;;;;;;;;;;18.60;99.90;;;17.92;78.21;95449.22;10495020;28;2721;-79
2021/07/12 06:33:15;;;;;;;;;;;18.70;99.90;;;18.45;75.81;95442.31;10497727;28;2255;-80
2021/07/12 06:38:18;;;;;;;;;;;19.00;99.90;;;18.44;74.23;95443.44;10484901;28;2260;-82
2021/07/12 06:43:21;;;;;;;;;;;19.20;99.90;;;18.62;72.36;95453.06;10466519;28;2280;-83
2021/07/12 06:48:23;;;;;;;;;;;19.50;99.90;;;18.68;73.15;95449.03;10494363;28;2403;-82
2021/07/12 06:53:26;;;;;;;;;;;19.70;99.90;;;19.06;71.27;95453.53;10488638;28;2285;-82
2021/07/12 06:58:29;;;;;;;;;;;19.90;99.90;;;19.28;69.73;95444.97;10499434;28;2246;-83
2021/07/12 07:03:32;;;;;;;;;;;20.00;99.90;;;18.48;73.27;95428.84;10476991;28;2042;-82
2021/07/12 07:08:35;;;;;;;;;;;19.90;99.90;;;19.21;70.86;95425.63;10508929;28;2346;-83
2021/07/12 07:13:43;;;;;;;;;;;19.90;99.90;;;19.00;72.21;95416.72;10504939;28;2315;-82
2021/07/12 07:18:50;;;;;;;;;;;19.90;99.90;;;18.47;73.72;95418.28;10493931;28;2439;-79
2021/07/12 07:23:53;;;;;;;;;;;19.80;99.90;;;19.25;71.73;95414.88;10481574;28;2201;-81
2021/07/12 07:28:56;;;;;;;;;;;19.80;99.90;;;20.02;69.67;95412.34;10492904;28;2294;-82
2021/07/12 07:33:59;;;;;;;;;;;20.50;99.90;;;19.86;66.51;95404.84;10489541;28;2625;-80
2021/07/12 07:39:02;;;;;;;;;;;20.90;99.90;;;19.64;67.38;95416.19;10481904;28;2251;-79
2021/07/12 07:44:05;;;;;;;;;;;20.90;99.90;;;20.22;65.54;95411.41;10483160;28;2319;-82
2021/07/12 07:49:08;;;;;;;;;;;21.10;99.90;;;19.69;65.23;95415.97;10507889;28;2368;-78
2021/07/12 07:54:11;;;;;;;;;;;20.80;99.90;;;20.14;63.89;95407.66;10510109;28;2337;-82
2021/07/12 07:59:17;;;;;;;;;;;20.90;99.90;;;20.15;63.77;95394.81;10493328;28;2020;-79
2021/07/12 08:04:20;;;;;;;;;;;21.00;99.90;;;20.11;63.91;95391.19;10496501;28;2880;-82
2021/07/12 08:09:23;;;;;;;;;;;21.20;99.90;;;20.47;64.08;95395.78;10490903;28;2052;-80
2021/07/12 08:14:26;;;;;;;;;;;21.20;99.90;;;20.67;64.39;95383.09;10501219;28;2140;-77
2021/07/12 08:19:28;;;;;;;;;;;21.50;99.90;;;20.57;66.27;95372.69;10494314;28;2126;-78
2021/07/12 08:24:41;;;;;;;;;;;21.60;99.90;;;20.95;64.79;95366.69;10492029;28;2741;-78
2021/07/12 08:29:43;;;;;;;;;;;21.70;99.90;;;20.58;66.12;95357.88;10495120;28;2019;-78
2021/07/12 08:34:46;;;;;;;;;;;21.90;99.90;;;21.21;65.25;95352.53;10507743;28;2122;-80
2021/07/12 08:39:49;;;;;;;;;;;22.00;99.90;;;21.34;64.35;95356.81;10506923;28;2226;-77
2021/07/12 08:44:51;;;;;;;;;;;22.30;99.90;;;21.82;62.29;95338.41;10511385;28;2160;-79
2021/07/12 08:49:54;;;;;;;;;;;22.50;99.90;;;22.00;59.83;95345.09;10511635;28;2078;-80
2021/07/12 08:54:57;;;;;;;;;;;22.70;99.90;;;22.42;54.87;95336.25;10507350;28;2118;-80
2021/07/12 09:00:00;;;;;;;;;;;23.10;99.90;;;22.35;54.71;95328.69;10513213;28;2090;-79
2021/07/12 09:05:02;;;;;;;;;;;23.20;99.90;;;22.29;54.16;95324.63;10509848;28;2477;-80
2021/07/12 09:10:05;;;;;;;;;;;23.30;99.90;;;22.25;52.10;95318.28;10509903;28;2117;-79
2021/07/12 09:15:08;;;;;;;;;;;23.20;99.90;;;21.98;54.09;95314.56;10490989;28;2098;-81
2021/07/12 09:20:10;;;;;;;;;;;23.00;99.90;;;22.33;52.69;95303.63;10482036;28;2137;-80
2021/07/12 09:25:13;;;;;;;;;;;23.20;99.90;;;22.11;53.82;95313.31;10486944;28;2144;-79
2021/07/12 09:30:16;;;;;;;;;;;23.00;99.90;;;21.96;51.82;95299.66;10505849;28;1971;-77
2021/07/12 09:35:18;;;;;;;;;;;22.90;99.90;;;22.28;51.81;95305.84;10509703;28;2114;-78
2021/07/12 09:40:21;;;;;;;;;;;23.10;99.90;;;22.65;51.58;95309.72;10516082;28;2416;-78
2021/07/12 09:45:24;;;;;;;;;;;23.50;99.90;;;22.88;50.54;95300.75;10513506;28;1046;-80
2021/07/12 09:50:27;;;;;;;;;;;23.70;99.90;;;23.05;50.31;95294.81;10527468;28;2042;-82
2021/07/12 09:55:32;;;;;;;;;;;23.90;99.90;;;23.03;49.36;95302.63;10531989;28;2042;-80
2021/07/12 10:00:35;;;;;;;;;;;24.00;99.90;;;23.28;47.94;95303.03;10510929;28;1906;-80
2021/07/12 10:05:38;;;;;;;;;;;24.20;99.90;;;23.04;48.80;95284.22;10512452;28;2787;-82
2021/07/12 10:10:41;;;;;;;;;;;24.20;99.90;;;22.75;49.15;95280.13;10492364;28;2102;-83
2021/07/12 10:15:44;;;;;;;;;;;24.00;99.90;;;23.27;49.61;95274.03;10493345;28;2740;-84
2021/07/12 10:20:46;;;;;;;;;;;24.10;99.90;;;23.38;49.30;95265.97;10497691;28;2649;-82
2021/07/12 10:25:52;;;;;;;;;;;24.20;99.90;;;23.48;48.87;95273.59;10514863;28;2031;-83
2021/07/12 10:31:15;;;;;;;;;;;24.50;99.90;;;23.25;51.05;95259.09;10525920;28;2900;-82
2021/07/12 10:36:18;;;;;;;;;;;24.30;99.90;;;23.36;50.04;95252.63;10494325;28;1093;-82
2021/07/12 10:41:21;;;;;;;;;;;24.30;99.90;;;23.48;48.24;95246.16;10515001;28;2765;-83
2021/07/12 10:46:26;;;;;;;;;;;24.60;99.90;;;24.60;46.88;95260.19;10522459;28;2085;-83
2021/07/12 10:51:32;;;;;;;;;;;25.30;99.90;;;25.27;45.48;95244.38;10482346;28;2677;-82
2021/07/12 10:56:34;;;;;;;;;;;26.60;99.90;;;25.22;45.87;95233.72;10502168;28;2075;-80
2021/07/12 11:01:37;;;;;;;;;;;27.30;99.90;;;25.21;46.32;95234.91;10492645;28;2090;-81
2021/07/12 11:06:40;;;;;;;;;;;27.50;99.90;;;25.62;46.39;95232.06;10497015;28;2701;-80
2021/07/12 11:11:43;;;;;;;;;;;27.80;99.90;;;26.14;45.83;95227.25;10501151;28;2091;-80
2021/07/12 11:16:46;;;;;;;;;;;28.30;99.90;;;25.16;48.07;95204.22;10521859;28;2026;-78
2021/07/12 11:21:49;;;;;;;;;;;28.30;99.90;;;25.77;46.55;95216.47;10483042;28;2027;-81
2021/07/12 11:26:51;;;;;;;;;;;28.20;99.90;;;25.26;47.86;95211.78;10518684;28;2119;-80
2021/07/12 11:31:55;;;;;;;;;;;27.70;99.90;;;25.73;47.39;95210.13;10505973;28;2101;-80
2021/07/12 11:36:57;;;;;;;;;;;27.50;99.90;;;25.63;47.10;95208.84;10493508;28;2062;-80
2021/07/12 11:42:15;;;;;;;;;;;27.30;99.90;;;24.89;48.23;95198.06;10526091;28;2181;-83
2021/07/12 11:47:18;;;;;;;;;;;26.60;99.90;;;24.79;48.62;95197.59;10528645;28;1305;-80
2021/07/12 11:52:22;;;;;;;;;;;26.10;99.90;;;24.50;49.08;95206.72;10503085;28;2090;-81
2021/07/12 11:57:24;;;;;;;;;;;25.80;99.90;;;24.68;49.03;95191.19;10529784;28;1868;-79
2021/07/12 12:02:27;;;;;;;;;;;25.80;99.90;;;24.78;49.87;95185.00;10529375;28;2055;-79
2021/07/12 12:07:30;;;;;;;;;;;25.80;99.90;;;24.53;50.06;95178.50;10518033;28;2138;-80
2021/07/12 12:12:33;;;;;;;;;;;25.80;99.90;;;24.88;49.25;95163.50;10495373;28;2226;-80
2021/07/12 12:17:38;;;;;;;;;;;25.80;99.90;;;24.84;48.96;95171.72;10510805;28;2153;-80
2021/07/12 12:22:41;;;;;;;;;;;26.00;99.90;;;24.90;47.99;95185.91;10523895;28;2177;-80
2021/07/12 12:27:43;;;;;;;;;;;26.10;99.90;;;25.07;47.45;95179.81;10533320;28;2014;-81
2021/07/12 12:32:46;;;;;;;;;;;26.10;99.90;;;25.08;48.02;95170.38;10524892;28;1976;-78
2021/07/12 12:37:49;;;;;;;;;;;26.20;99.90;;;25.03;48.43;95159.69;10516805;28;1904;-78
2021/07/12 12:42:52;;;;;;;;;;;26.30;99.90;;;24.97;48.46;95145.50;10506368;28;2708;-79
2021/07/12 12:48:12;;;;;;;;;;;26.00;99.90;;;24.90;49.40;95133.66;10495018;28;2412;-79
2021/07/12 12:53:14;;;;;;;;;;;26.00;99.90;;;24.97;48.90;95112.50;10478086;28;2405;-80
2021/07/12 12:58:17;;;;;;;;;;;26.00;99.90;;;25.05;49.28;95111.41;10492753;28;2353;-80
2021/07/12 13:03:20;;;;;;;;;;;26.10;99.90;;;25.34;48.70;95112.41;10485442;28;2419;-83
2021/07/12 13:13:40;;;;;;;;;;;26.30;99.90;;;25.25;49.67;95081.69;10698914;23;2117;-81
2021/07/12 13:18:43;;;;;;;;;;;26.10;99.90;;;25.47;48.97;95106.56;10367455;28;2769;-81
2021/07/12 13:23:45;;;;;;;;;;;26.30;99.90;;;25.21;49.48;95113.88;10343659;28;2652;-82
2021/07/12 13:28:48;;;;;;;;;;;26.30;99.90;;;25.49;49.25;95118.75;10342166;28;2707;-82
2021/07/12 13:33:50;;;;;;;;;;;26.20;99.90;;;25.19;48.92;95126.44;10345156;28;2111;-83
2021/07/12 13:38:54;;;;;;;;;;;26.30;99.90;;;25.36;49.18;95109.25;10351753;28;2171;-82
2021/07/12 13:43:57;;;;;;;;;;;26.30;99.90;;;25.35;49.18;95113.19;10340532;28;2352;-81
2021/07/12 13:49:01;;;;;;;;;;;26.50;99.90;;;25.92;48.05;95115.44;10360549;28;2294;-81
2021/07/12 13:54:04;;;;;;;;;;;26.70;99.90;;;25.97;47.15;95095.78;10338565;28;2447;-82
2021/07/12 13:59:06;;;;;;;;;;;26.90;99.90;;;25.80;48.08;95100.84;10349642;28;2435;-81
2021/07/12 14:04:09;;;;;;;;;;;26.90;99.90;;;25.99;47.12;95093.44;10347637;28;2372;-82
2021/07/12 14:09:12;;;;;;;;;;;27.00;99.90;;;25.97;47.75;95084.78;10353587;28;2617;-82
2021/07/12 14:14:14;;;;;;;;;;;26.90;99.90;;;25.59;48.05;95084.22;10345942;28;2308;-81
2021/07/12 14:19:17;;;;;;;;;;;26.70;99.90;;;26.18;45.93;95084.81;10345177;28;2228;-83
2021/07/12 14:24:20;;;;;;;;;;;27.00;99.90;;;25.88;46.58;95065.84;10346104;28;2735;-82
2021/07/12 14:29:23;;;;;;;;;;;26.90;99.90;;;25.93;46.01;95075.72;10356130;28;2304;-81
2021/07/12 14:34:25;;;;;;;;;;;27.00;99.90;;;25.88;46.29;95077.66;10351866;28;2507;-80
2021/07/12 14:39:28;;;;;;;;;;;26.90;99.90;;;25.84;45.95;95065.88;10347052;28;2308;-82
2021/07/12 14:44:34;;;;;;;;;;;26.70;99.90;;;26.49;44.19;95063.25;10338471;28;2340;-81
2021/07/12 14:49:37;;;;;;;;;;;27.00;99.90;;;26.44;43.84;95047.09;10336831;28;2682;-82
2021/07/12 14:54:40;;;;;;;;;;;27.20;99.90;;;26.08;43.37;95063.53;10346762;28;2317;-82
2021/07/12 14:59:43;;;;;;;;;;;27.30;99.90;;;26.36;43.21;95049.81;10355608;28;2395;-83
2021/07/12 15:04:46;;;;;;;;;;;27.20;99.90;;;26.30;43.24;95045.88;10345807;28;2642;-82
2021/07/12 15:09:48;;;;;;;;;;;27.30;99.90;;;26.06;43.01;95052.13;10345284;28;2488;-81
2021/07/12 15:14:51;;;;;;;;;;;27.30;99.90;;;26.42;42.05;95030.97;10359070;28;2621;-82
2021/07/12 15:19:54;;;;;;;;;;;27.30;99.90;;;26.39;41.68;95032.50;10350103;28;2765;-81
2021/07/12 15:24:56;;;;;;;;;;;27.50;99.90;;;26.10;42.89;95037.19;10367170;28;2245;-82
2021/07/12 15:29:59;;;;;;;;;;;27.20;99.90;;;26.56;41.47;95050.25;10371383;28;2312;-79
2021/07/12 15:35:02;;;;;;;;;;;27.50;99.90;;;26.17;42.81;95041.94;10364936;28;2331;-79
2021/07/12 15:40:04;;;;;;;;;;;27.30;99.90;;;26.28;42.96;95041.94;10363924;28;2371;-82
2021/07/12 15:45:07;;;;;;;;;;;27.30;99.90;;;26.12;44.23;95034.84;10352089;28;2186;-82
2021/07/12 15:50:10;;;;;;;;;;;27.20;99.90;;;25.43;45.46;95037.75;10338485;28;2320;-81
2021/07/12 15:55:13;;;;;;;;;;;26.70;99.90;;;25.19;47.17;95041.97;10361209;28;2393;-82
2021/07/12 16:00:16;;;;;;;;;;;26.30;99.90;;;25.40;47.04;95038.53;10351607;28;2415;-79
2021/07/12 16:05:19;;;;;;;;;;;26.20;99.90;;;25.87;45.85;95034.78;10339243;28;2248;-81
2021/07/12 16:10:23;;;;;;;;;;;26.50;99.90;;;25.80;45.90;95022.97;10341219;28;2283;-80
2021/07/12 16:15:26;;;;;;;;;;;26.60;99.90;;;26.05;45.38;95023.03;10351647;28;2343;-80
2021/07/12 16:20:29;;;;;;;;;;;26.70;99.90;;;25.81;44.51;95025.31;10344716;28;2554;-79
2021/07/12 16:25:32;;;;;;;;;;;26.70;99.90;;;25.65;45.36;95022.13;10348306;28;2335;-79
2021/07/12 16:30:35;;;;;;;;;;;26.60;99.90;;;25.40;45.26;95018.50;10347219;28;2431;-80
2021/07/12 16:35:38;;;;;;;;;;;26.50;99.90;;;25.19;46.04;95028.22;10345187;28;2297;-79
2021/07/12 16:40:41;;;;;;;;;;;26.30;99.90;;;25.23;45.70;95022.72;10332311;28;2178;-80
2021/07/12 16:45:44;;;;;;;;;;;26.20;99.90;;;24.94;45.95;95017.06;10344447;28;2254;-79
2021/07/12 16:50:47;;;;;;;;;;;26.00;99.90;;;24.94;46.02;95027.25;10353034;28;2149;-79
2021/07/12 16:55:49;;;;;;;;;;;26.00;99.90;;;24.94;46.64;95021.75;10356889;28;2261;-80
2021/07/12 17:00:52;;;;;;;;;;;25.80;99.90;;;24.66;46.42;95012.16;10348281;28;2224;-81
2021/07/12 17:05:56;;;;;;;;;;;25.70;99.90;;;24.54;46.86;95015.22;10351140;28;2236;-80
2021/07/12 17:10:59;;;;;;;;;;;25.50;99.90;;;24.37;47.43;95007.66;10341696;28;2363;-79
2021/07/12 17:16:02;;;;;;;;;;;25.30;99.90;;;24.23;48.29;94989.84;10333941;28;2405;-81
2021/07/12 17:21:05;;;;;;;;;;;25.20;99.90;;;24.19;48.89;94989.03;10339214;28;2262;-80
2021/07/12 17:26:08;;;;;;;;;;;25.10;99.90;;;24.42;48.76;94979.81;10330322;28;2615;-81
2021/07/12 17:31:11;;;;;;;;;;;25.10;99.90;;;24.36;48.49;94984.88;10325864;28;2673;-81
2021/07/12 17:36:13;;;;;;;;;;;25.20;99.90;;;24.13;49.13;94985.06;10355981;28;2712;-80
2021/07/12 17:41:18;;;;;;;;;;;25.10;99.90;;;23.89;50.24;94969.16;10343309;28;2647;-82
2021/07/12 17:46:20;;;;;;;;;;;24.80;99.90;;;23.73;50.95;94966.69;10338768;28;2497;-80
2021/07/12 17:51:23;;;;;;;;;;;24.70;99.90;;;23.63;51.13;94970.88;10329289;28;2388;-81
2021/07/12 17:56:26;;;;;;;;;;;24.60;99.90;;;23.45;51.45;94973.41;10338356;28;2318;-81
2021/07/12 18:01:29;;;;;;;;;;;24.50;99.90;;;23.39;51.84;94985.06;10329309;28;2480;-80
2021/07/12 18:06:32;;;;;;;;;;;24.40;99.90;;;23.27;52.45;94974.34;10327973;28;2320;-81
2021/07/12 18:11:35;;;;;;;;;;;24.30;99.90;;;23.26;53.17;94979.06;10328739;28;2307;-80
2021/07/12 18:16:40;;;;;;;;;;;24.10;99.90;;;23.24;53.05;94972.38;10330313;28;2427;-80
2021/07/12 18:21:42;;;;;;;;;;;24.10;99.90;;;23.28;53.22;94978.66;10335463;28;2371;-80
2021/07/12 18:26:46;;;;;;;;;;;24.10;99.90;;;23.29;53.19;94988.50;10334795;28;2733;-79
2021/07/12 18:31:49;;;;;;;;;;;24.10;99.90;;;23.27;54.14;94993.56;10332006;28;2322;-81
2021/07/12 18:36:53;;;;;;;;;;;24.10;99.90;;;23.00;54.94;94990.88;10347727;28;2269;-82
2021/07/12 18:41:56;;;;;;;;;;;24.00;99.90;;;22.77;55.77;94990.91;10332894;28;2315;-80
2021/07/12 18:46:59;;;;;;;;;;;23.90;99.90;;;22.60;56.61;94983.25;10329237;28;2397;-82
2021/07/12 18:52:02;;;;;;;;;;;23.70;99.90;;;22.35;57.76;94985.63;10326780;28;2313;-80
2021/07/12 18:57:05;;;;;;;;;;;23.50;99.90;;;22.13;58.90;94976.28;10322423;28;2351;-81
2021/07/12 19:02:09;;;;;;;;;;;23.30;99.90;;;21.89;60.09;94971.97;10325882;28;2319;-80
2021/07/12 19:07:12;;;;;;;;;;;23.00;99.90;;;21.63;61.40;94980.06;10324393;28;2305;-80
2021/07/12 19:12:15;;;;;;;;;;;22.80;99.90;;;21.44;62.52;94997.31;10324494;28;2349;-81
2021/07/12 19:17:17;;;;;;;;;;;22.60;99.90;;;21.34;62.77;95009.63;10319694;28;2571;-81
2021/07/12 19:22:20;;;;;;;;;;;22.50;99.90;;;21.18;63.65;95006.94;10345912;28;2378;-80
2021/07/12 19:27:23;;;;;;;;;;;22.30;99.90;;;21.15;63.90;94998.69;10322178;28;2343;-79
2021/07/12 19:32:27;;;;;;;;;;;22.20;99.90;;;21.07;64.14;94999.69;10332931;28;2244;-81
2021/07/12 19:37:30;;;;;;;;;;;22.10;99.90;;;21.06;64.17;95001.63;10340056;28;2288;-80
2021/07/12 19:42:33;;;;;;;;;;;22.00;99.90;;;21.04;63.92;95009.38;10337686;28;2368;-81
2021/07/12 19:47:36;;;;;;;;;;;22.10;99.90;;;20.91;64.52;95014.19;10324442;28;2297;-80
2021/07/12 19:52:39;;;;;;;;;;;22.00;99.90;;;20.91;64.31;95014.19;10327748;28;2458;-80
2021/07/12 19:57:42;;;;;;;;;;;21.90;99.90;;;20.92;64.31;95023.94;10328196;28;2256;-80
2021/07/12 20:02:48;;;;;;;;;;;21.90;99.90;;;20.76;65.34;95026.75;10335891;28;2749;-82
2021/07/12 20:07:51;;;;;;;;;;;21.80;99.90;;;20.74;65.24;95025.50;10333995;28;2344;-80
2021/07/12 20:12:54;;;;;;;;;;;21.80;99.90;;;20.67;65.64;95022.63;10346474;28;2328;-81
2021/07/12 20:17:57;;;;;;;;;;;21.70;99.90;;;20.66;65.49;95035.47;10330951;28;2333;-81
2021/07/12 20:23:00;;;;;;;;;;;21.60;99.90;;;20.73;65.24;95037.59;10333085;28;2307;-81
2021/07/12 20:28:02;;;;;;;;;;;21.70;99.90;;;20.67;65.22;95039.00;10328776;28;2466;-80
2021/07/12 20:33:05;;;;;;;;;;;21.60;99.90;;;20.65;66.00;95041.31;10331515;28;2429;-80
2021/07/12 20:38:08;;;;;;;;;;;21.60;99.90;;;20.47;67.29;95036.22;10334192;28;2250;-81
2021/07/12 20:43:11;;;;;;;;;;;21.50;99.90;;;20.34;67.94;95031.97;10336937;28;2277;-81
2021/07/12 20:48:14;;;;;;;;;;;21.40;99.90;;;20.33;67.26;95030.41;10331283;28;2320;-81
2021/07/12 20:53:16;;;;;;;;;;;21.30;99.90;;;20.43;66.19;95046.25;10335740;28;2333;-80
2021/07/12 20:58:19;;;;;;;;;;;21.30;99.90;;;20.37;66.90;95042.19;10339494;28;2451;-80
2021/07/12 21:03:22;;;;;;;;;;;21.40;99.90;;;20.35;67.21;95017.19;10343023;28;2334;-80
2021/07/12 21:08:25;;;;;;;;;;;21.30;99.90;;;20.25;66.93;95012.28;10335344;28;2444;-81
2021/07/12 21:13:28;;;;;;;;;;;21.20;99.90;;;20.21;67.26;95005.94;10336458;28;2333;-81
2021/07/12 21:18:33;;;;;;;;;;;21.20;99.90;;;20.15;68.00;95001.88;10338430;28;2253;-78
2021/07/12 21:23:36;;;;;;;;;;;21.10;99.90;;;20.04;68.72;95003.56;10364422;28;2298;-81
2021/07/12 21:28:38;;;;;;;;;;;21.00;99.90;;;19.95;68.98;94988.16;10367512;28;1627;-81
2021/07/12 21:33:41;;;;;;;;;;;21.00;99.90;;;19.83;69.49;94984.72;10346493;28;2323;-79
2021/07/12 21:38:44;;;;;;;;;;;20.90;99.90;;;19.65;70.17;94989.72;10359112;28;4095;-81
2021/07/12 21:43:47;;;;;;;;;;;20.80;99.90;;;19.55;70.25;94987.50;10369167;28;2757;-82
2021/07/12 21:48:50;;;;;;;;;;;20.60;99.90;;;19.40;71.48;94984.41;10345601;28;2665;-80
2021/07/12 21:53:53;;;;;;;;;;;20.50;99.90;;;19.31;71.93;94988.41;10337843;28;2576;-81
2021/07/12 21:58:55;;;;;;;;;;;20.30;99.90;;;19.24;72.37;94991.75;10345744;28;2701;-81
2021/07/12 22:03:58;;;;;;;;;;;20.20;99.90;;;19.25;71.37;94987.09;10347136;28;2630;-80
2021/07/12 22:09:01;;;;;;;;;;;20.20;99.90;;;19.17;71.56;94977.94;10343095;28;2690;-81
2021/07/12 22:14:08;;;;;;;;;;;20.20;99.90;;;19.03;73.04;94958.47;10348806;28;2363;-80
2021/07/12 22:19:11;;;;;;;;;;;20.10;99.90;;;19.03;72.64;94953.81;10342206;28;2366;-80
2021/07/12 22:24:34;;;;;;;;;;;20.00;99.90;;;18.97;73.01;94943.53;10336462;28;2266;-81
2021/07/12 22:29:58;;;;;;;;;;;20.00;99.90;;;18.95;73.54;94945.78;10330556;28;2387;-80
2021/07/12 22:35:01;;;;;;;;;;;19.90;99.90;;;18.85;74.56;94936.97;10338800;28;2180;-81
2021/07/12 22:40:03;;;;;;;;;;;19.90;99.90;;;18.82;74.94;94932.22;10332689;28;2018;-81
2021/07/12 22:45:06;;;;;;;;;;;19.80;99.90;;;18.83;75.55;94906.59;10354356;28;2167;-81
2021/07/12 22:50:10;;;;;;;;;;;19.80;99.90;;;18.82;76.03;94913.16;10348490;28;2293;-82
2021/07/12 22:55:13;;;;;;;;;;;19.80;99.90;;;18.79;76.25;94900.25;10343933;28;2435;-81
2021/07/12 23:00:16;;;;;;;;;;;19.80;99.90;;;18.80;76.74;94901.03;10341620;28;2362;-81
2021/07/12 23:05:19;;;;;;;;;;;19.80;99.90;;;18.72;77.74;94902.78;10339272;28;2238;-80
2021/07/12 23:10:21;;;;;;;;;;;19.70;99.90;;;18.66;78.04;94911.50;10345596;28;2312;-81
2021/07/12 23:15:25;;;;;;;;;;;19.60;99.90;;;18.62;78.66;94911.38;10369291;28;2181;-81